createdAt,value
2019-04-11T00:00:39.591Z,19.00
2019-04-11T00:01:51.900Z,19.25
2019-04-11T00:02:53.159Z,17.25
2019-04-11T00:03:59.893Z,20.25
2019-04-11T00:05:02.839Z,22.25
2019-04-11T00:06:05.632Z,20.75
2019-04-11T00:07:08.936Z,20.75
2019-04-11T00:08:12.136Z,26.25
2019-04-11T00:09:18.756Z,22.25
2019-04-11T00:10:22.849Z,20.75
2019-04-11T00:11:26.065Z,19.75
2019-04-11T00:12:30.504Z,19.75
2019-04-11T00:13:35.976Z,20.75
2019-04-11T00:14:38.046Z,20.75
2019-04-11T00:15:41.123Z,20.75
2019-04-11T00:16:43.949Z,22.25
2019-04-11T00:17:47.179Z,21.25
2019-04-11T00:18:51.314Z,19.75
2019-04-11T00:19:55.744Z,22.75
2019-04-11T00:20:58.677Z,21.25
2019-04-11T00:22:01.959Z,23.25
2019-04-11T00:23:06.065Z,21.75
2019-04-11T00:24:10.326Z,21.00
2019-04-11T00:25:15.906Z,20.25
2019-04-11T00:26:18.723Z,18.00
2019-04-11T00:27:21.528Z,18.75
2019-04-11T00:28:24.421Z,18.75
2019-04-11T00:29:28.199Z,16.75
2019-04-11T00:30:32.345Z,20.50
2019-04-11T00:31:36.814Z,20.00
2019-04-11T00:32:39.814Z,18.50
2019-04-11T00:33:42.908Z,19.50
2019-04-11T00:34:47.003Z,19.50
2019-04-11T00:35:50.274Z,19.50
2019-04-11T00:36:54.798Z,22.00
2019-04-11T00:37:57.774Z,22.00
2019-04-11T00:39:01.389Z,19.00
2019-04-11T00:40:04.255Z,22.50
2019-04-11T00:41:07.972Z,20.00
2019-04-11T00:42:12.423Z,18.50
2019-04-11T00:43:27.197Z,19.50
2019-04-11T00:44:20.905Z,18.00
2019-04-11T00:45:23.890Z,19.00
2019-04-11T00:46:26.715Z,20.00
2019-04-11T00:47:31.115Z,20.00
2019-04-11T00:48:35.525Z,19.50
2019-04-11T00:49:38.751Z,21.50
2019-04-11T00:50:41.616Z,16.50
2019-04-11T00:51:44.446Z,16.00
2019-04-11T00:52:47.651Z,19.50
2019-04-11T00:53:50.509Z,14.00
2019-04-11T00:54:55.274Z,18.50
2019-04-11T00:55:58.204Z,16.00
2019-04-11T00:57:01.068Z,16.50
2019-04-11T00:58:03.970Z,20.00
2019-04-11T00:59:07.886Z,18.00
2019-04-11T01:00:11.097Z,17.00
2019-04-11T01:01:15.656Z,20.00
2019-04-11T01:02:18.509Z,16.00
2019-04-11T01:03:22.140Z,18.00
2019-04-11T01:04:25.561Z,17.50
2019-04-11T01:05:28.385Z,15.00
2019-04-11T01:06:31.550Z,12.50
2019-04-11T01:07:35.341Z,19.00
2019-04-11T01:08:38.214Z,18.00
2019-04-11T01:09:42.216Z,18.50
2019-04-11T01:10:45.620Z,16.00
2019-04-11T01:11:48.518Z,15.50
2019-04-11T01:12:51.365Z,16.00
2019-04-11T01:13:55.526Z,16.00
2019-04-11T01:14:59.440Z,17.00
2019-04-11T01:16:11.152Z,18.00
2019-04-11T01:17:14.928Z,18.00
2019-04-11T01:18:18.063Z,14.50
2019-04-11T01:19:22.595Z,15.50
2019-04-11T01:20:25.869Z,17.00
2019-04-11T01:21:28.683Z,17.50
2019-04-11T01:22:31.976Z,16.50
2019-04-11T01:23:35.359Z,16.00
2019-04-11T01:24:38.273Z,16.00
2019-04-11T01:25:41.495Z,16.50
2019-04-11T01:26:47.611Z,14.00
2019-04-11T01:27:54.272Z,16.00
2019-04-11T01:28:57.148Z,19.50
2019-04-11T01:30:00.054Z,15.00
2019-04-11T01:31:05.742Z,16.00
2019-04-11T01:32:10.538Z,16.50
2019-04-11T01:33:13.752Z,16.00
2019-04-11T01:34:18.025Z,15.50
2019-04-11T01:35:21.407Z,18.50
2019-04-11T01:36:24.240Z,15.50
2019-04-11T01:37:28.195Z,15.00
2019-04-11T01:38:32.519Z,18.50
2019-04-11T01:39:47.406Z,14.00
2019-04-11T01:40:50.350Z,16.00
2019-04-11T01:41:53.442Z,14.00
2019-04-11T01:42:56.292Z,17.00
2019-04-11T01:44:03.414Z,16.00
2019-04-11T01:45:05.247Z,16.00
2019-04-11T01:46:09.647Z,16.00
2019-04-11T01:47:15.280Z,15.50
2019-04-11T01:48:25.772Z,14.00
2019-04-11T01:49:28.642Z,12.00
2019-04-11T01:50:34.808Z,13.00
2019-04-11T01:51:38.014Z,14.50
2019-04-11T01:52:40.930Z,17.00
2019-04-11T01:53:43.717Z,14.00
2019-04-11T01:54:46.508Z,16.50
2019-04-11T01:55:50.439Z,13.50
2019-04-11T01:56:53.709Z,16.00
2019-04-11T01:57:56.733Z,17.00
2019-04-11T01:58:59.869Z,14.00
2019-04-11T02:00:03.912Z,16.50
2019-04-11T02:01:23.020Z,16.00
2019-04-11T02:02:50.948Z,16.50
2019-04-11T02:03:59.154Z,15.50
2019-04-11T02:05:08.406Z,14.00
2019-04-11T02:06:11.837Z,13.00
2019-04-11T02:07:14.809Z,16.50
2019-04-11T02:08:19.601Z,14.50
2019-04-11T02:09:22.622Z,14.00
2019-04-11T02:10:26.720Z,14.50
2019-04-11T02:11:29.843Z,14.00
2019-04-11T02:12:32.649Z,14.00
2019-04-11T02:13:36.280Z,13.00
2019-04-11T02:14:39.647Z,14.50
2019-04-11T02:15:42.480Z,15.50
2019-04-11T02:16:45.422Z,14.00
2019-04-11T02:17:48.819Z,13.50
2019-04-11T02:18:52.156Z,13.00
2019-04-11T02:19:55.047Z,14.50
2019-04-11T02:20:57.921Z,14.50
2019-04-11T02:22:32.648Z,15.00
2019-04-11T02:23:49.449Z,13.50
2019-04-11T02:24:57.913Z,14.50
2019-04-11T02:26:20.924Z,15.50
2019-04-11T02:27:27.421Z,13.50
2019-04-11T02:28:30.937Z,14.00
2019-04-11T02:29:33.854Z,14.00
2019-04-11T02:30:41.714Z,15.50
2019-04-11T02:31:44.571Z,16.00
2019-04-11T02:32:49.859Z,16.00
2019-04-11T02:33:52.897Z,17.00
2019-04-11T02:34:58.890Z,14.00
2019-04-11T02:36:00.890Z,17.50
2019-04-11T02:37:05.162Z,17.00
2019-04-11T02:38:12.627Z,14.50
2019-04-11T02:39:19.283Z,15.00
2019-04-11T02:40:22.946Z,15.50
2019-04-11T02:41:25.458Z,13.00
2019-04-11T02:42:28.366Z,15.50
2019-04-11T02:43:31.956Z,14.00
2019-04-11T02:44:53.187Z,12.00
2019-04-11T02:45:52.620Z,14.00
2019-04-11T02:46:57.117Z,15.50
2019-04-11T02:47:51.274Z,12.00
2019-04-11T02:48:56.641Z,12.00
2019-04-11T02:49:59.442Z,14.00
2019-04-11T02:51:03.484Z,11.50
2019-04-11T02:52:07.853Z,13.50
2019-04-11T02:53:12.578Z,13.50
2019-04-11T02:54:15.968Z,13.50
2019-04-11T02:55:20.987Z,13.00
2019-04-11T02:56:27.814Z,14.00
2019-04-11T02:57:32.233Z,12.50
2019-04-11T02:58:36.700Z,15.50
2019-04-11T02:59:40.919Z,14.00
2019-04-11T03:00:45.458Z,12.00
2019-04-11T03:01:48.818Z,14.00
2019-04-11T03:02:53.410Z,16.00
2019-04-11T03:03:58.819Z,12.50
2019-04-11T03:05:02.392Z,12.50
2019-04-11T03:06:06.932Z,12.00
2019-04-11T03:07:10.011Z,14.00
2019-04-11T03:08:17.851Z,16.50
2019-04-11T03:09:18.123Z,14.50
2019-04-11T03:10:22.338Z,15.50
2019-04-11T03:11:27.405Z,13.00
2019-04-11T03:12:31.690Z,12.00
2019-04-11T03:13:35.309Z,13.00
2019-04-11T03:15:01.956Z,12.00
2019-04-11T03:16:02.111Z,14.00
2019-04-11T03:16:57.537Z,14.00
2019-04-11T03:17:58.976Z,13.00
2019-04-11T03:19:18.449Z,12.00
2019-04-11T03:20:18.416Z,12.50
2019-04-11T03:21:13.654Z,14.50
2019-04-11T03:22:14.114Z,13.50
2019-04-11T03:23:20.660Z,15.00
2019-04-11T03:24:24.276Z,12.50
2019-04-11T03:25:28.396Z,13.00
2019-04-11T03:26:33.431Z,13.00
2019-04-11T03:27:37.241Z,12.00
2019-04-11T03:28:42.923Z,15.00
2019-04-11T03:29:45.822Z,14.00
2019-04-11T03:31:15.102Z,11.50
2019-04-11T03:33:55.378Z,14.00
2019-04-11T03:34:53.224Z,15.50
2019-04-11T03:36:01.216Z,15.00
2019-04-11T03:37:43.055Z,13.50
2019-04-11T03:38:44.171Z,14.00
2019-04-11T03:39:43.603Z,13.50
2019-04-11T03:40:48.261Z,10.50
2019-04-11T03:41:52.082Z,12.00
2019-04-11T03:42:55.493Z,13.50
2019-04-11T03:43:53.932Z,14.00
2019-04-11T03:45:11.286Z,12.50
2019-04-11T03:46:15.833Z,13.50
2019-04-11T03:47:12.754Z,14.00
2019-04-11T03:48:20.458Z,14.00
2019-04-11T03:49:20.720Z,12.00
2019-04-11T03:50:19.446Z,14.00
2019-04-11T03:51:21.145Z,16.00
2019-04-11T03:52:25.826Z,13.50
2019-04-11T03:53:29.890Z,12.00
2019-04-11T03:54:34.610Z,13.00
2019-04-11T03:55:39.077Z,12.00
2019-04-11T03:56:43.275Z,13.50
2019-04-11T03:57:47.038Z,13.00
2019-04-11T03:58:50.498Z,16.50
2019-04-11T03:59:54.490Z,11.50
2019-04-11T04:01:03.232Z,11.50
2019-04-11T04:02:03.256Z,10.00
2019-04-11T04:03:06.416Z,13.50
2019-04-11T04:04:11.117Z,14.00
2019-04-11T04:05:15.150Z,13.50
2019-04-11T04:06:19.141Z,14.00
2019-04-11T04:07:23.473Z,14.00
2019-04-11T04:08:27.578Z,13.50
2019-04-11T04:09:30.945Z,14.00
2019-04-11T04:10:36.143Z,14.00
2019-04-11T04:11:40.902Z,15.00
2019-04-11T04:12:45.266Z,13.00
2019-04-11T04:13:59.550Z,12.50
2019-04-11T04:15:39.158Z,11.50
2019-04-11T04:16:50.310Z,12.50
2019-04-11T04:18:15.056Z,12.00
2019-04-11T04:19:49.932Z,10.50
2019-04-11T04:21:17.556Z,12.50
2019-04-11T04:22:46.245Z,11.00
2019-04-11T04:23:51.896Z,8.50
2019-04-11T04:24:56.015Z,15.00
2019-04-11T04:26:01.049Z,10.00
2019-04-11T04:27:04.713Z,12.00
2019-04-11T04:28:10.152Z,10.50
2019-04-11T04:29:13.636Z,10.00
2019-04-11T04:30:18.084Z,13.00
2019-04-11T04:31:22.249Z,10.00
2019-04-11T04:32:25.467Z,10.00
2019-04-11T04:33:29.323Z,14.50
2019-04-11T04:34:35.943Z,12.00
2019-04-11T04:35:40.673Z,15.00
2019-04-11T04:36:43.842Z,13.00
2019-04-11T04:37:47.559Z,13.00
2019-04-11T04:38:52.658Z,11.00
2019-04-11T04:40:13.209Z,10.00
2019-04-11T04:41:11.286Z,11.00
2019-04-11T04:42:11.121Z,11.00
2019-04-11T04:43:10.389Z,13.50
2019-04-11T04:44:14.426Z,12.50
2019-04-11T04:45:19.106Z,14.00
2019-04-11T04:46:35.955Z,16.00
2019-04-11T04:47:37.157Z,16.00
2019-04-11T04:48:32.364Z,15.00
2019-04-11T04:49:38.622Z,13.00
2019-04-11T04:50:42.216Z,12.00
2019-04-11T04:51:45.802Z,10.00
2019-04-11T04:52:51.601Z,14.00
2019-04-11T04:53:55.771Z,14.00
2019-04-11T04:54:59.961Z,10.00
2019-04-11T04:56:03.615Z,14.00
2019-04-11T04:57:08.521Z,13.00
2019-04-11T04:58:15.663Z,12.00
2019-04-11T04:59:19.488Z,17.00
2019-04-11T05:00:23.747Z,16.00
2019-04-11T05:01:29.085Z,14.00
2019-04-11T05:02:32.692Z,11.50
2019-04-11T05:03:37.887Z,12.00
2019-04-11T05:04:40.892Z,13.00
2019-04-11T05:05:46.536Z,16.00
2019-04-11T05:06:50.850Z,14.50
2019-04-11T05:07:56.162Z,16.00
2019-04-11T05:09:00.195Z,12.50
2019-04-11T05:10:06.120Z,14.00
2019-04-11T05:11:07.783Z,12.50
2019-04-11T05:12:11.966Z,12.50
2019-04-11T05:13:17.063Z,16.00
2019-04-11T05:14:21.033Z,15.50
2019-04-11T05:15:24.415Z,10.00
2019-04-11T05:16:27.440Z,14.50
2019-04-11T05:17:32.227Z,13.00
2019-04-11T05:18:36.430Z,14.00
2019-04-11T05:19:40.475Z,15.00
2019-04-11T05:20:44.199Z,16.00
2019-04-11T05:21:47.815Z,16.00
2019-04-11T05:22:56.331Z,14.00
2019-04-11T05:23:59.271Z,15.50
2019-04-11T05:25:03.564Z,14.00
2019-04-11T05:26:07.548Z,12.50
2019-04-11T05:27:10.691Z,17.00
2019-04-11T05:28:14.029Z,14.00
2019-04-11T05:29:17.470Z,15.00
2019-04-11T05:43:51.869Z,24.50
2019-04-11T05:44:54.881Z,20.00
2019-04-11T05:45:58.337Z,23.00
2019-04-11T05:47:03.517Z,16.75
2019-04-11T05:48:09.416Z,21.50
2019-04-11T05:49:47.385Z,22.00
2019-04-11T05:50:52.668Z,18.00
2019-04-11T05:52:00.429Z,14.50
2019-04-11T05:53:07.331Z,16.00
2019-04-11T05:54:10.794Z,16.00
2019-04-11T05:55:13.865Z,18.00
2019-04-11T05:56:21.803Z,20.50
2019-04-11T05:57:33.629Z,18.00
2019-04-11T05:58:30.371Z,17.50
2019-04-11T05:59:33.433Z,18.00
2019-04-11T06:00:55.959Z,20.00
2019-04-11T06:02:07.650Z,18.00
2019-04-11T06:03:13.442Z,17.50
2019-04-11T06:04:28.204Z,20.00
2019-04-11T06:06:01.782Z,19.50
2019-04-11T06:07:21.339Z,15.50
2019-04-11T06:08:30.400Z,16.50
2019-04-11T06:09:38.177Z,16.50
2019-04-11T06:10:54.703Z,18.50
2019-04-11T06:12:33.810Z,18.50
2019-04-11T06:13:48.828Z,18.00
2019-04-11T06:15:13.925Z,19.00
2019-04-11T06:16:16.829Z,15.50
2019-04-11T06:17:21.845Z,18.00
2019-04-11T06:18:46.369Z,18.00
2019-04-11T06:20:14.418Z,17.50
2019-04-11T06:21:42.263Z,16.00
2019-04-11T06:22:56.253Z,16.50
2019-04-11T06:24:18.204Z,18.00
2019-04-11T06:25:43.257Z,20.00
2019-04-11T06:27:11.195Z,18.50
2019-04-11T06:28:22.183Z,16.00
2019-04-11T06:29:36.918Z,20.00
2019-04-11T06:30:58.963Z,20.00
2019-04-11T06:32:23.769Z,18.50
2019-04-11T06:33:32.128Z,18.50
2019-04-11T06:34:39.625Z,20.25
2019-04-11T06:36:00.803Z,18.00
2019-04-11T06:37:29.785Z,19.00
2019-04-11T06:38:51.181Z,17.00
2019-04-11T06:40:09.655Z,13.50
2019-04-11T06:41:24.336Z,14.50
2019-04-11T06:42:45.511Z,16.75
2019-04-11T06:44:12.726Z,16.25
2019-04-11T06:45:32.890Z,15.25
2019-04-11T06:46:52.375Z,18.50
2019-04-11T06:48:28.229Z,19.25
2019-04-11T06:49:37.016Z,17.00
2019-04-11T06:51:11.589Z,14.00
2019-04-11T06:52:15.438Z,13.00
2019-04-11T06:53:22.563Z,15.50
2019-04-11T06:54:41.952Z,15.00
2019-04-11T06:56:34.942Z,13.50
2019-04-11T06:57:38.330Z,14.75
2019-04-11T06:58:47.956Z,15.50
2019-04-11T06:59:52.578Z,15.25
2019-04-11T07:01:14.206Z,16.00
2019-04-11T07:02:20.290Z,13.75
2019-04-11T07:03:30.373Z,14.00
2019-04-11T07:04:41.977Z,15.50
2019-04-11T07:06:02.882Z,14.50
2019-04-11T07:07:09.413Z,12.25
2019-04-11T07:08:12.414Z,13.25
2019-04-11T07:09:37.047Z,15.25
2019-04-11T07:10:45.331Z,14.00
2019-04-11T07:11:52.557Z,15.00
2019-04-11T07:13:00.777Z,17.50
2019-04-11T07:14:22.497Z,15.00
2019-04-11T07:15:31.554Z,14.25
2019-04-11T07:16:36.182Z,13.75
2019-04-11T07:17:56.725Z,13.75
2019-04-11T07:19:17.646Z,14.25
2019-04-11T07:20:38.273Z,15.25
2019-04-11T07:21:41.911Z,14.25
2019-04-11T07:23:02.233Z,13.75
2019-04-11T07:24:30.363Z,14.00
2019-04-11T07:25:55.965Z,15.00
2019-04-11T07:27:12.412Z,15.00
2019-04-11T07:28:37.054Z,17.00
2019-04-11T07:30:11.374Z,15.50
2019-04-11T07:31:32.026Z,12.50
2019-04-11T07:32:36.361Z,13.50
2019-04-11T07:33:52.483Z,17.75
2019-04-11T07:35:12.963Z,13.00
2019-04-11T07:36:49.874Z,14.00
2019-04-11T07:37:55.411Z,13.75
2019-04-11T07:39:03.267Z,12.00
2019-04-11T07:40:26.630Z,14.00
2019-04-11T07:41:47.937Z,15.00
2019-04-11T07:42:59.446Z,13.75
2019-04-11T07:44:00.680Z,15.75
2019-04-11T07:45:06.556Z,13.50
2019-04-11T07:46:29.005Z,15.25
2019-04-11T07:47:39.135Z,13.25
2019-04-11T07:48:42.910Z,12.50
2019-04-11T07:49:46.295Z,12.50
2019-04-11T07:50:49.222Z,12.00
2019-04-11T07:52:00.813Z,12.00
2019-04-11T07:53:04.986Z,12.75
2019-04-11T07:54:32.770Z,12.00
2019-04-11T07:55:36.512Z,10.00
2019-04-11T07:56:58.981Z,12.00
2019-04-11T07:58:22.081Z,14.00
2019-04-11T07:59:42.556Z,11.50
2019-04-11T08:01:16.855Z,11.75
2019-04-11T08:02:39.859Z,12.75
2019-04-11T08:04:06.019Z,14.00
2019-04-11T08:05:26.534Z,13.00
2019-04-11T08:06:47.886Z,12.25
2019-04-11T08:08:15.911Z,12.25
2019-04-11T08:09:43.917Z,13.00
2019-04-11T08:11:09.615Z,10.75
2019-04-11T08:12:18.857Z,10.50
2019-04-11T08:13:32.558Z,16.25
2019-04-11T08:14:55.253Z,11.00
2019-04-11T08:16:15.565Z,14.00
2019-04-11T08:17:30.943Z,12.50
2019-04-11T08:18:39.217Z,11.25
2019-04-11T08:20:01.068Z,11.00
2019-04-11T08:21:21.875Z,10.75
2019-04-11T08:22:43.258Z,10.00
2019-04-11T08:23:48.991Z,13.00
2019-04-11T08:25:17.435Z,12.25
2019-04-11T08:26:55.337Z,12.00
2019-04-11T08:28:02.999Z,13.25
2019-04-11T08:29:11.673Z,12.50
2019-04-11T08:30:10.851Z,11.75
2019-04-11T08:31:36.187Z,13.00
2019-04-11T08:33:04.544Z,12.50
2019-04-11T08:34:08.992Z,11.00
2019-04-11T08:35:34.835Z,13.00
2019-04-11T08:37:03.273Z,12.00
2019-04-11T08:38:10.121Z,13.00
2019-04-11T08:39:17.999Z,11.00
2019-04-11T08:40:21.843Z,10.75
2019-04-11T08:41:42.069Z,13.75
2019-04-11T08:43:07.694Z,10.75
2019-04-11T08:44:34.210Z,12.00
2019-04-11T08:45:42.326Z,10.75
2019-04-11T08:46:48.580Z,12.00
2019-04-11T08:47:56.902Z,12.75
2019-04-11T08:48:59.493Z,13.00
2019-04-11T08:50:02.575Z,11.00
2019-04-11T08:51:09.761Z,12.25
2019-04-11T08:52:44.417Z,11.50
2019-04-11T08:54:05.425Z,11.75
2019-04-11T08:55:43.025Z,11.50
2019-04-11T08:56:37.011Z,11.00
2019-04-11T08:57:54.028Z,11.00
2019-04-11T08:59:15.358Z,10.00
2019-04-11T09:00:37.979Z,11.75
2019-04-11T09:01:42.278Z,12.00
2019-04-11T09:02:51.955Z,11.50
2019-04-11T09:04:09.203Z,14.00
2019-04-11T09:05:40.953Z,11.00
2019-04-11T09:06:45.080Z,12.75
2019-04-11T09:08:10.013Z,12.00
2019-04-11T09:09:31.504Z,12.00
2019-04-11T09:10:52.530Z,11.25
2019-04-11T09:11:58.387Z,11.50
2019-04-11T09:13:19.388Z,12.00
2019-04-11T09:14:53.271Z,12.50
2019-04-11T09:16:13.483Z,12.00
2019-04-11T09:17:28.474Z,12.50
2019-04-11T09:18:34.788Z,11.00
2019-04-11T09:19:57.027Z,13.00
2019-04-11T09:21:24.407Z,14.00
2019-04-11T09:22:45.355Z,14.00
2019-04-11T09:23:51.952Z,11.00
2019-04-11T09:25:21.143Z,14.50
2019-04-11T09:26:42.473Z,12.50
2019-04-11T09:28:04.964Z,10.50
2019-04-11T09:29:08.312Z,12.00
2019-04-11T09:30:17.445Z,14.00
2019-04-11T09:31:42.565Z,10.50
2019-04-11T09:33:08.820Z,12.00
2019-04-11T09:34:30.527Z,11.75
2019-04-11T09:35:35.316Z,11.25
2019-04-11T09:37:00.906Z,11.25
2019-04-11T09:38:04.493Z,12.75
2019-04-11T09:39:10.998Z,11.00
2019-04-11T09:40:31.968Z,12.00
2019-04-11T09:41:54.491Z,14.25
2019-04-11T09:43:22.147Z,11.25
2019-04-11T09:44:26.241Z,13.50
2019-04-11T09:45:57.705Z,14.25
2019-04-11T09:47:24.505Z,12.50
2019-04-11T09:48:44.680Z,12.50
2019-04-11T09:49:53.700Z,11.75
2019-04-11T09:51:03.548Z,12.00
2019-04-11T09:52:12.157Z,16.50
2019-04-11T09:53:16.312Z,13.00
2019-04-11T09:54:36.603Z,15.25
2019-04-11T09:56:04.771Z,16.50
2019-04-11T09:57:41.924Z,14.50
2019-04-11T09:58:47.613Z,14.00
2019-04-11T10:00:27.384Z,14.50
2019-04-11T10:01:56.678Z,13.50
2019-04-11T10:03:19.629Z,11.25
2019-04-11T10:04:23.380Z,13.50
2019-04-11T10:06:03.473Z,14.00
2019-04-11T10:07:34.048Z,11.00
2019-04-11T10:08:44.915Z,14.00
2019-04-11T10:10:08.566Z,14.00
2019-04-11T10:11:40.124Z,14.00
2019-04-11T10:13:02.639Z,12.50
2019-04-11T10:14:10.079Z,12.00
2019-04-11T10:15:13.550Z,14.75
2019-04-11T10:16:48.683Z,12.75
2019-04-11T10:18:20.193Z,14.75
2019-04-11T10:19:32.103Z,14.00
2019-04-11T10:20:35.395Z,11.25
2019-04-11T10:21:39.603Z,13.75
2019-04-11T10:23:12.205Z,12.75
2019-04-11T10:24:34.647Z,14.00
2019-04-11T10:25:54.047Z,11.00
2019-04-11T10:27:06.758Z,13.25
2019-04-11T10:28:25.078Z,12.00
2019-04-11T10:29:45.487Z,10.75
2019-04-11T10:42:51.993Z,12.50
2019-04-11T10:43:55.209Z,12.00
2019-04-11T10:45:26.835Z,13.00
2019-04-11T10:46:49.566Z,14.50
2019-04-11T10:47:55.942Z,12.25
2019-04-11T10:49:05.984Z,13.00
2019-04-11T10:50:42.520Z,12.00
2019-04-11T10:52:04.662Z,11.75
2019-04-11T10:53:08.950Z,12.00
2019-04-11T10:54:15.585Z,14.00
2019-04-11T10:55:22.041Z,13.75
2019-04-11T10:56:40.975Z,10.50
2019-04-11T10:57:46.909Z,12.00
2019-04-11T10:58:55.448Z,14.50
2019-04-11T10:59:59.855Z,14.00
2019-04-11T11:01:20.088Z,14.00
2019-04-11T11:02:43.057Z,11.75
2019-04-11T11:03:51.686Z,12.00
2019-04-11T11:04:56.997Z,13.75
2019-04-11T11:06:01.477Z,12.00
2019-04-11T11:07:16.752Z,13.00
2019-04-11T11:08:47.891Z,10.00
2019-04-11T11:10:12.331Z,11.50
2019-04-11T11:11:28.792Z,16.75
2019-04-11T11:12:37.100Z,16.25
2019-04-11T11:14:14.318Z,15.25
2019-04-11T11:15:20.241Z,12.00
2019-04-11T11:16:29.233Z,11.00
2019-04-11T11:18:00.985Z,13.00
2019-04-11T11:19:40.381Z,15.00
2019-04-11T11:20:53.127Z,14.50
2019-04-11T11:22:00.434Z,14.00
2019-04-11T11:23:29.113Z,16.75
2019-04-11T11:24:58.051Z,16.00
2019-04-11T11:26:22.556Z,16.50
2019-04-11T11:27:24.435Z,16.00
2019-04-11T11:28:30.062Z,13.00
2019-04-11T11:29:41.221Z,16.00
2019-04-11T11:31:03.265Z,15.50
2019-04-11T11:32:27.911Z,14.75
2019-04-11T11:33:38.451Z,14.50
2019-04-11T11:35:12.826Z,13.25
2019-04-11T11:36:43.843Z,16.75
2019-04-11T11:37:59.832Z,14.00
2019-04-11T11:39:22.507Z,13.25
2019-04-11T11:40:52.048Z,13.25
2019-04-11T11:42:30.373Z,14.50
2019-04-11T11:43:35.239Z,14.50
2019-04-11T11:44:46.664Z,13.00
2019-04-11T11:46:07.083Z,12.25
2019-04-11T11:47:39.885Z,15.00
2019-04-11T11:48:51.079Z,13.50
2019-04-11T11:49:58.572Z,15.00
2019-04-11T11:50:59.147Z,15.00
2019-04-11T11:52:33.373Z,14.00
2019-04-11T11:53:53.208Z,14.00
2019-04-11T11:54:57.013Z,14.00
2019-04-11T11:56:01.996Z,15.50
2019-04-11T11:57:09.035Z,12.50
2019-04-11T11:58:33.477Z,13.00
2019-04-11T11:59:42.934Z,13.00
2019-04-11T12:00:48.053Z,12.50
2019-04-11T12:01:58.401Z,14.00
2019-04-11T12:03:27.703Z,15.25
2019-04-11T12:04:50.265Z,15.50
2019-04-11T12:05:56.923Z,13.50
2019-04-11T12:07:05.248Z,11.00
2019-04-11T12:08:30.726Z,12.00
2019-04-11T12:09:53.023Z,14.25
2019-04-11T12:11:04.451Z,15.00
2019-04-11T12:12:15.988Z,13.75
2019-04-11T12:13:47.491Z,13.50
2019-04-11T12:15:14.310Z,13.00
2019-04-11T12:16:23.680Z,14.25
2019-04-11T12:17:47.027Z,14.00
2019-04-11T12:19:07.157Z,14.25
2019-04-11T12:20:16.543Z,14.75
2019-04-11T12:21:26.332Z,13.50
2019-04-11T12:22:38.474Z,14.00
2019-04-11T12:24:06.552Z,12.50
2019-04-11T12:25:14.579Z,11.75
2019-04-11T12:26:18.438Z,11.00
2019-04-11T12:27:39.994Z,13.00
2019-04-11T12:29:02.798Z,11.00
2019-04-11T12:30:26.605Z,13.50
2019-04-11T12:31:28.742Z,12.00
2019-04-11T12:32:32.944Z,13.00
2019-04-11T12:33:55.915Z,11.75
2019-04-11T12:35:18.123Z,10.75
2019-04-11T12:36:28.398Z,11.25
2019-04-11T12:37:36.467Z,11.50
2019-04-11T12:38:57.053Z,13.50
2019-04-11T12:40:18.744Z,13.00
2019-04-11T12:41:59.897Z,13.00
2019-04-11T12:43:03.981Z,13.50
2019-04-11T12:44:23.993Z,14.25
2019-04-11T12:46:03.804Z,13.50
2019-04-11T12:47:41.499Z,13.25
2019-04-11T12:48:48.397Z,13.50
2019-04-11T12:50:08.538Z,12.00
2019-04-11T12:51:39.246Z,14.50
2019-04-11T12:53:10.393Z,12.25
2019-04-11T12:54:23.732Z,11.00
2019-04-11T12:55:45.274Z,15.00
2019-04-11T12:57:08.565Z,16.00
2019-04-11T12:58:32.809Z,13.00
2019-04-11T12:59:35.975Z,13.50
2019-04-11T13:00:49.752Z,14.75
2019-04-11T13:02:14.215Z,15.00
2019-04-11T13:03:47.719Z,12.75
2019-04-11T13:04:50.897Z,14.25
2019-04-11T13:05:57.308Z,12.25
2019-04-11T13:07:34.751Z,13.00
2019-04-11T13:09:02.331Z,13.75
2019-04-11T13:10:24.311Z,11.25
2019-04-11T13:11:27.315Z,14.75
2019-04-11T13:12:55.138Z,10.75
2019-04-11T13:14:19.557Z,12.00
2019-04-11T13:15:36.494Z,14.75
2019-04-11T13:16:40.013Z,11.00
2019-04-11T13:17:46.250Z,14.00
2019-04-11T13:19:07.199Z,12.50
2019-04-11T13:20:37.919Z,14.00
2019-04-11T13:21:52.580Z,12.00
2019-04-11T13:22:58.161Z,14.50
2019-04-11T13:24:24.031Z,12.25
2019-04-11T13:26:01.110Z,13.50
2019-04-11T13:27:18.451Z,12.50
2019-04-11T13:28:21.799Z,12.50
2019-04-11T13:29:43.942Z,11.50
2019-04-11T13:31:20.643Z,13.75
2019-04-11T13:32:35.579Z,11.25
2019-04-11T13:33:38.997Z,14.00
2019-04-11T13:34:43.059Z,13.00
2019-04-11T13:36:05.064Z,12.00
2019-04-11T13:37:25.153Z,11.00
2019-04-11T13:38:33.508Z,13.50
2019-04-11T13:39:36.725Z,14.00
2019-04-11T13:41:04.938Z,12.25
2019-04-11T13:42:28.234Z,12.00
2019-04-11T13:43:36.919Z,13.00
2019-04-11T13:44:40.962Z,12.50
2019-04-11T13:45:57.527Z,12.75
2019-04-11T13:47:18.061Z,14.50
2019-04-11T13:48:54.622Z,12.00
2019-04-11T13:50:00.277Z,12.00
2019-04-11T13:51:07.611Z,15.50
2019-04-11T13:52:29.409Z,17.50
2019-04-11T13:53:54.369Z,16.75
2019-04-11T13:55:22.249Z,13.25
2019-04-11T13:56:32.562Z,13.75
2019-04-11T13:58:00.182Z,15.00
2019-04-11T13:59:20.486Z,12.50
2019-04-11T14:00:43.427Z,10.50
2019-04-11T14:01:46.518Z,10.50
2019-04-11T14:03:16.039Z,10.00
2019-04-11T14:04:24.767Z,12.00
2019-04-11T14:05:28.172Z,11.25
2019-04-11T14:06:38.894Z,10.00
2019-04-11T14:07:42.158Z,13.50
2019-04-11T14:08:53.870Z,11.50
2019-04-11T14:09:59.097Z,13.25
2019-04-11T14:11:14.817Z,10.75
2019-04-11T14:12:18.340Z,15.00
2019-04-11T14:13:34.642Z,12.75
2019-04-11T14:14:56.278Z,12.75
2019-04-11T14:16:01.284Z,13.00
2019-04-11T14:17:23.317Z,11.00
2019-04-11T14:18:41.589Z,12.75
2019-04-11T14:20:04.300Z,13.00
2019-04-11T14:21:14.903Z,12.00
2019-04-11T14:22:28.793Z,12.00
2019-04-11T14:23:46.821Z,11.25
2019-04-11T14:25:13.517Z,14.00
2019-04-11T14:26:32.588Z,11.25
2019-04-11T14:27:35.480Z,14.00
2019-04-11T14:28:45.013Z,11.00
2019-04-11T14:29:58.443Z,12.75
2019-04-11T14:31:31.983Z,14.50
2019-04-11T14:32:35.982Z,11.00
2019-04-11T14:33:40.715Z,13.25
2019-04-11T14:35:11.891Z,12.00
2019-04-11T14:36:33.527Z,11.75
2019-04-11T14:37:49.617Z,12.00
2019-04-11T14:38:56.190Z,15.75
2019-04-11T14:40:05.225Z,12.00
2019-04-11T14:41:25.279Z,12.50
2019-04-11T14:42:56.279Z,12.75
2019-04-11T14:44:02.335Z,10.00
2019-04-11T14:45:06.931Z,14.00
2019-04-11T14:46:28.768Z,12.00
2019-04-11T14:47:48.326Z,11.00
2019-04-11T14:48:56.895Z,12.50
2019-04-11T14:50:03.051Z,12.50
2019-04-11T14:51:17.675Z,11.50
2019-04-11T14:52:51.276Z,12.00
2019-04-11T14:54:18.294Z,11.75
2019-04-11T14:55:21.400Z,15.00
2019-04-11T14:56:27.252Z,13.50
2019-04-11T14:57:55.709Z,14.00
2019-04-11T14:59:24.755Z,10.00
2019-04-11T15:00:33.538Z,12.00
2019-04-11T15:01:36.437Z,11.50
2019-04-11T15:02:56.765Z,13.75
2019-04-11T15:04:33.532Z,13.25
2019-04-11T15:05:47.852Z,11.75
2019-04-11T15:06:52.239Z,12.00
2019-04-11T15:07:55.559Z,10.00
2019-04-11T15:09:20.275Z,12.50
2019-04-11T15:10:57.086Z,11.25
2019-04-11T15:12:05.517Z,12.50
2019-04-11T15:13:09.390Z,11.00
2019-04-11T15:14:22.792Z,12.25
2019-04-11T15:15:47.773Z,12.25
2019-04-11T15:17:12.402Z,9.50
2019-04-11T15:18:17.546Z,13.75
2019-04-11T15:19:20.373Z,12.00
2019-04-11T15:21:06.623Z,12.75
2019-04-11T15:22:26.164Z,11.00
2019-04-11T15:23:31.698Z,12.50
2019-04-11T15:24:37.441Z,12.00
2019-04-11T15:26:11.101Z,12.00
2019-04-11T15:27:32.763Z,13.75
2019-04-11T15:28:55.090Z,13.00
2019-04-11T15:30:09.299Z,14.00
2019-04-11T15:31:19.746Z,13.25
2019-04-11T15:32:39.991Z,10.75
2019-04-11T15:34:11.209Z,12.00
2019-04-11T15:35:16.688Z,13.00
2019-04-11T15:36:21.436Z,13.00
2019-04-11T15:37:55.253Z,11.50
2019-04-11T15:39:16.420Z,12.00
2019-04-11T15:40:41.947Z,12.50
2019-04-11T15:41:45.792Z,11.00
2019-04-11T15:43:04.542Z,14.00
2019-04-11T15:44:26.372Z,15.00
2019-04-11T15:45:38.335Z,13.25
2019-04-11T15:46:47.531Z,13.75
2019-04-11T15:48:02.451Z,13.00
2019-04-11T15:49:42.276Z,12.00
2019-04-11T15:51:06.901Z,12.00
2019-04-11T15:52:11.620Z,13.25
2019-04-11T15:53:20.471Z,11.25
2019-04-11T15:54:42.592Z,14.00
2019-04-11T15:56:02.446Z,14.00
2019-04-11T15:57:23.806Z,14.00
2019-04-11T15:58:34.167Z,13.00